sensor_id;sensor_type;location;lat;lon;timestamp;pressure;altitude;pressure_sealevel;temperature;humidity
62864;BME280;48954;59.950;11.014;2023-06-04T00:02:18;100223.34;;;10.00;62.29
62864;BME280;48954;59.950;11.014;2023-06-04T00:04:45;100223.08;;;9.94;62.52
62864;BME280;48954;59.950;11.014;2023-06-04T00:07:11;100227.91;;;9.89;62.69
62864;BME280;48954;59.950;11.014;2023-06-04T00:09:38;100226.45;;;9.87;62.78
62864;BME280;48954;59.950;11.014;2023-06-04T00:12:05;100228.78;;;9.86;63.01
62864;BME280;48954;59.950;11.014;2023-06-04T00:14:31;100227.73;;;9.81;62.94
62864;BME280;48954;59.950;11.014;2023-06-04T00:17:08;100233.58;;;9.77;63.00
62864;BME280;48954;59.950;11.014;2023-06-04T00:19:37;100236.06;;;9.74;63.17
62864;BME280;48954;59.950;11.014;2023-06-04T00:22:04;100238.95;;;9.71;63.00
62864;BME280;48954;59.950;11.014;2023-06-04T00:24:31;100245.02;;;9.67;63.14
62864;BME280;48954;59.950;11.014;2023-06-04T00:26:58;100246.58;;;9.64;63.07
62864;BME280;48954;59.950;11.014;2023-06-04T00:29:24;100247.77;;;9.61;63.39
62864;BME280;48954;59.950;11.014;2023-06-04T00:31:51;100250.66;;;9.58;63.55
62864;BME280;48954;59.950;11.014;2023-06-04T00:34:21;100248.81;;;9.52;63.48
62864;BME280;48954;59.950;11.014;2023-06-04T00:36:51;100250.02;;;9.46;63.57
62864;BME280;48954;59.950;11.014;2023-06-04T00:39:20;100253.76;;;9.41;63.57
62864;BME280;48954;59.950;11.014;2023-06-04T00:41:48;100255.20;;;9.35;63.63
62864;BME280;48954;59.950;11.014;2023-06-04T00:44:15;100261.56;;;9.28;63.65
62864;BME280;48954;59.950;11.014;2023-06-04T00:46:41;100259.46;;;9.22;63.79
62864;BME280;48954;59.950;11.014;2023-06-04T00:49:08;100260.81;;;9.16;63.85
62864;BME280;48954;59.950;11.014;2023-06-04T00:51:35;100261.23;;;9.13;64.13
62864;BME280;48954;59.950;11.014;2023-06-04T00:54:04;100263.08;;;9.09;64.53
62864;BME280;48954;59.950;11.014;2023-06-04T00:56:30;100261.02;;;9.06;64.57
62864;BME280;48954;59.950;11.014;2023-06-04T00:58:57;100262.24;;;9.06;64.78
62864;BME280;48954;59.950;11.014;2023-06-04T01:03:57;100268.24;;;9.05;65.03
62864;BME280;48954;59.950;11.014;2023-06-04T01:06:38;100277.59;;;9.03;65.09
62864;BME280;48954;59.950;11.014;2023-06-04T01:09:05;100277.14;;;9.02;64.99
62864;BME280;48954;59.950;11.014;2023-06-04T01:11:37;100278.29;;;8.99;65.29
62864;BME280;48954;59.950;11.014;2023-06-04T01:14:05;100281.39;;;8.96;65.38
62864;BME280;48954;59.950;11.014;2023-06-04T01:16:38;100283.40;;;8.92;65.12
62864;BME280;48954;59.950;11.014;2023-06-04T01:19:35;100291.00;;;8.89;65.13
62864;BME280;48954;59.950;11.014;2023-06-04T01:22:02;100299.55;;;8.83;65.28
62864;BME280;48954;59.950;11.014;2023-06-04T01:24:34;100301.48;;;8.79;65.32
62864;BME280;48954;59.950;11.014;2023-06-04T01:27:04;100301.02;;;8.76;65.68
62864;BME280;48954;59.950;11.014;2023-06-04T01:29:31;100304.50;;;8.73;65.75
62864;BME280;48954;59.950;11.014;2023-06-04T01:31:58;100307.30;;;8.70;65.92
62864;BME280;48954;59.950;11.014;2023-06-04T01:34:25;100309.70;;;8.67;65.75
62864;BME280;48954;59.950;11.014;2023-06-04T01:37:07;100314.55;;;8.63;65.71
62864;BME280;48954;59.950;11.014;2023-06-04T01:39:33;100311.61;;;8.56;65.42
62864;BME280;48954;59.950;11.014;2023-06-04T01:42:00;100314.11;;;8.52;65.68
62864;BME280;48954;59.950;11.014;2023-06-04T01:44:26;100308.25;;;8.47;65.74
62864;BME280;48954;59.950;11.014;2023-06-04T01:46:52;100309.87;;;8.44;65.67
62864;BME280;48954;59.950;11.014;2023-06-04T01:49:19;100314.13;;;8.40;65.70
62864;BME280;48954;59.950;11.014;2023-06-04T01:51:45;100315.84;;;8.38;66.07
62864;BME280;48954;59.950;11.014;2023-06-04T01:54:12;100316.94;;;8.36;65.98
62864;BME280;48954;59.950;11.014;2023-06-04T01:56:38;100317.30;;;8.35;65.59
62864;BME280;48954;59.950;11.014;2023-06-04T01:59:05;100318.33;;;8.36;65.85
62864;BME280;48954;59.950;11.014;2023-06-04T02:01:31;100321.96;;;8.37;65.79
62864;BME280;48954;59.950;11.014;2023-06-04T02:03:58;100321.95;;;8.40;65.65
62864;BME280;48954;59.950;11.014;2023-06-04T02:06:25;100329.96;;;8.47;65.69
62864;BME280;48954;59.950;11.014;2023-06-04T02:08:51;100332.02;;;8.51;65.22
62864;BME280;48954;59.950;11.014;2023-06-04T02:11:18;100336.48;;;8.53;65.02
62864;BME280;48954;59.950;11.014;2023-06-04T02:13:44;100338.36;;;8.55;65.27
62864;BME280;48954;59.950;11.014;2023-06-04T02:16:11;100338.49;;;8.52;64.98
62864;BME280;48954;59.950;11.014;2023-06-04T02:18:37;100341.95;;;8.51;65.05
62864;BME280;48954;59.950;11.014;2023-06-04T02:21:04;100345.60;;;8.48;65.09
62864;BME280;48954;59.950;11.014;2023-06-04T02:23:31;100349.33;;;8.45;65.01
62864;BME280;48954;59.950;11.014;2023-06-04T02:25:57;100346.35;;;8.43;65.30
62864;BME280;48954;59.950;11.014;2023-06-04T02:28:24;100348.23;;;8.43;64.90
62864;BME280;48954;59.950;11.014;2023-06-04T02:30:50;100350.61;;;8.44;64.73
62864;BME280;48954;59.950;11.014;2023-06-04T02:33:17;100356.16;;;8.46;64.74
62864;BME280;48954;59.950;11.014;2023-06-04T02:35:43;100358.83;;;8.48;64.75
62864;BME280;48954;59.950;11.014;2023-06-04T02:38:10;100359.86;;;8.50;64.57
62864;BME280;48954;59.950;11.014;2023-06-04T02:40:38;100357.69;;;8.50;64.40
62864;BME280;48954;59.950;11.014;2023-06-04T02:43:05;100365.13;;;8.52;64.26
62864;BME280;48954;59.950;11.014;2023-06-04T02:45:32;100372.58;;;8.54;64.06
62864;BME280;48954;59.950;11.014;2023-06-04T02:47:58;100376.64;;;8.58;64.10
62864;BME280;48954;59.950;11.014;2023-06-04T02:50:25;100380.11;;;8.61;64.12
62864;BME280;48954;59.950;11.014;2023-06-04T02:52:51;100382.39;;;8.63;63.75
62864;BME280;48954;59.950;11.014;2023-06-04T02:55:18;100390.26;;;8.66;63.62
62864;BME280;48954;59.950;11.014;2023-06-04T02:57:44;100387.30;;;8.68;63.51
62864;BME280;48954;59.950;11.014;2023-06-04T03:00:12;100388.30;;;8.74;63.11
62864;BME280;48954;59.950;11.014;2023-06-04T03:02:44;100388.10;;;8.80;62.80
62864;BME280;48954;59.950;11.014;2023-06-04T03:05:13;100395.27;;;8.89;62.63
62864;BME280;48954;59.950;11.014;2023-06-04T03:07:42;100400.06;;;8.98;62.26
62864;BME280;48954;59.950;11.014;2023-06-04T03:10:10;100400.17;;;9.06;62.02
62864;BME280;48954;59.950;11.014;2023-06-04T03:12:36;100400.98;;;9.13;62.04
62864;BME280;48954;59.950;11.014;2023-06-04T03:15:04;100401.65;;;9.20;61.85
62864;BME280;48954;59.950;11.014;2023-06-04T03:17:31;100401.70;;;9.26;61.56
62864;BME280;48954;59.950;11.014;2023-06-04T03:19:57;100406.19;;;9.30;61.48
62864;BME280;48954;59.950;11.014;2023-06-04T03:22:24;100406.30;;;9.34;61.30
62864;BME280;48954;59.950;11.014;2023-06-04T03:24:50;100412.88;;;9.38;61.36
62864;BME280;48954;59.950;11.014;2023-06-04T03:27:17;100416.24;;;9.42;61.41
62864;BME280;48954;59.950;11.014;2023-06-04T03:29:44;100420.98;;;9.44;61.61
62864;BME280;48954;59.950;11.014;2023-06-04T03:32:10;100429.56;;;9.48;61.38
62864;BME280;48954;59.950;11.014;2023-06-04T03:34:37;100428.23;;;9.52;61.38
62864;BME280;48954;59.950;11.014;2023-06-04T03:37:08;100429.14;;;9.57;61.23
62864;BME280;48954;59.950;11.014;2023-06-04T03:39:35;100425.67;;;9.61;60.96
62864;BME280;48954;59.950;11.014;2023-06-04T03:42:02;100422.37;;;9.65;61.28
62864;BME280;48954;59.950;11.014;2023-06-04T03:44:28;100426.61;;;9.69;61.22
62864;BME280;48954;59.950;11.014;2023-06-04T03:46:55;100431.89;;;9.72;61.10
62864;BME280;48954;59.950;11.014;2023-06-04T03:49:21;100433.97;;;9.76;60.97
62864;BME280;48954;59.950;11.014;2023-06-04T03:51:48;100435.53;;;9.80;60.88
62864;BME280;48954;59.950;11.014;2023-06-04T03:54:14;100433.04;;;9.84;60.68
62864;BME280;48954;59.950;11.014;2023-06-04T03:56:42;100431.59;;;9.88;60.41
62864;BME280;48954;59.950;11.014;2023-06-04T03:59:09;100434.24;;;9.92;60.29
62864;BME280;48954;59.950;11.014;2023-06-04T04:01:35;100434.19;;;9.94;60.35
62864;BME280;48954;59.950;11.014;2023-06-04T04:04:02;100433.72;;;9.96;59.75
62864;BME280;48954;59.950;11.014;2023-06-04T04:06:28;100433.90;;;10.00;60.00
62864;BME280;48954;59.950;11.014;2023-06-04T04:08:55;100437.52;;;10.04;59.74
62864;BME280;48954;59.950;11.014;2023-06-04T04:11:21;100439.30;;;10.08;59.75
62864;BME280;48954;59.950;11.014;2023-06-04T04:13:48;100443.34;;;10.11;59.66
62864;BME280;48954;59.950;11.014;2023-06-04T04:16:15;100443.65;;;10.14;59.13
62864;BME280;48954;59.950;11.014;2023-06-04T04:18:42;100447.31;;;10.17;59.17
62864;BME280;48954;59.950;11.014;2023-06-04T04:21:09;100447.37;;;10.20;59.06
62864;BME280;48954;59.950;11.014;2023-06-04T04:23:37;100447.46;;;10.25;58.87
62864;BME280;48954;59.950;11.014;2023-06-04T04:26:04;100449.30;;;10.28;58.56
62864;BME280;48954;59.950;11.014;2023-06-04T04:28:30;100447.00;;;10.34;58.40
62864;BME280;48954;59.950;11.014;2023-06-04T04:30:57;100451.64;;;10.39;58.37
62864;BME280;48954;59.950;11.014;2023-06-04T04:33:24;100453.27;;;10.46;58.46
62864;BME280;48954;59.950;11.014;2023-06-04T04:35:51;100456.23;;;10.52;58.24
62864;BME280;48954;59.950;11.014;2023-06-04T04:38:19;100460.45;;;10.60;58.00
62864;BME280;48954;59.950;11.014;2023-06-04T04:40:46;100457.48;;;10.66;57.88
62864;BME280;48954;59.950;11.014;2023-06-04T04:43:12;100460.88;;;10.71;57.65
62864;BME280;48954;59.950;11.014;2023-06-04T04:45:39;100457.56;;;10.78;57.53
62864;BME280;48954;59.950;11.014;2023-06-04T04:48:07;100465.09;;;10.87;57.38
62864;BME280;48954;59.950;11.014;2023-06-04T04:50:34;100463.64;;;10.93;57.30
62864;BME280;48954;59.950;11.014;2023-06-04T04:53:00;100466.16;;;11.00;57.08
62864;BME280;48954;59.950;11.014;2023-06-04T04:55:27;100463.26;;;11.08;56.80
62864;BME280;48954;59.950;11.014;2023-06-04T04:58:06;100461.86;;;11.20;56.38
62864;BME280;48954;59.950;11.014;2023-06-04T05:00:32;100463.46;;;11.30;56.20
62864;BME280;48954;59.950;11.014;2023-06-04T05:02:59;100456.98;;;11.39;55.82
62864;BME280;48954;59.950;11.014;2023-06-04T05:05:25;100460.77;;;11.50;55.83
62864;BME280;48954;59.950;11.014;2023-06-04T05:07:52;100464.02;;;11.59;55.24
62864;BME280;48954;59.950;11.014;2023-06-04T05:10:18;100467.88;;;11.67;54.77
62864;BME280;48954;59.950;11.014;2023-06-04T05:12:55;100471.17;;;11.74;54.47
62864;BME280;48954;59.950;11.014;2023-06-04T05:15:22;100470.30;;;11.82;53.97
62864;BME280;48954;59.950;11.014;2023-06-04T05:17:48;100472.00;;;11.89;53.71
62864;BME280;48954;59.950;11.014;2023-06-04T05:20:15;100474.66;;;11.97;53.63
62864;BME280;48954;59.950;11.014;2023-06-04T05:22:41;100472.40;;;12.06;53.27
62864;BME280;48954;59.950;11.014;2023-06-04T05:25:08;100471.88;;;12.15;52.95
62864;BME280;48954;59.950;11.014;2023-06-04T05:27:35;100474.91;;;12.26;52.80
62864;BME280;48954;59.950;11.014;2023-06-04T05:30:02;100476.77;;;12.33;52.49
62864;BME280;48954;59.950;11.014;2023-06-04T05:32:29;100479.16;;;12.42;52.58
62864;BME280;48954;59.950;11.014;2023-06-04T05:34:57;100479.48;;;12.55;52.41
62864;BME280;48954;59.950;11.014;2023-06-04T05:37:26;100482.82;;;12.69;52.13
62864;BME280;48954;59.950;11.014;2023-06-04T05:39:53;100482.84;;;12.82;51.84
62864;BME280;48954;59.950;11.014;2023-06-04T05:42:19;100483.19;;;12.93;51.28
62864;BME280;48954;59.950;11.014;2023-06-04T05:44:46;100484.96;;;13.01;51.30
62864;BME280;48954;59.950;11.014;2023-06-04T05:47:12;100482.88;;;13.15;51.16
62864;BME280;48954;59.950;11.014;2023-06-04T05:49:39;100483.48;;;13.31;50.94
62864;BME280;48954;59.950;11.014;2023-06-04T05:52:05;100488.48;;;13.46;50.92
62864;BME280;48954;59.950;11.014;2023-06-04T05:54:34;100491.36;;;13.58;50.45
62864;BME280;48954;59.950;11.014;2023-06-04T05:57:01;100491.20;;;13.66;50.16
62864;BME280;48954;59.950;11.014;2023-06-04T05:59:29;100497.14;;;13.73;50.06
62864;BME280;48954;59.950;11.014;2023-06-04T06:01:56;100498.02;;;13.81;49.76
62864;BME280;48954;59.950;11.014;2023-06-04T06:04:23;100492.15;;;13.87;49.55
62864;BME280;48954;59.950;11.014;2023-06-04T06:06:50;100490.20;;;13.97;49.32
62864;BME280;48954;59.950;11.014;2023-06-04T06:09:16;100491.96;;;14.06;49.08
62864;BME280;48954;59.950;11.014;2023-06-04T06:11:44;100493.34;;;14.11;48.81
62864;BME280;48954;59.950;11.014;2023-06-04T06:14:11;100490.39;;;14.18;48.57
62864;BME280;48954;59.950;11.014;2023-06-04T06:16:43;100491.08;;;14.25;48.31
62864;BME280;48954;59.950;11.014;2023-06-04T06:19:09;100494.13;;;14.35;48.05
62864;BME280;48954;59.950;11.014;2023-06-04T06:21:36;100490.84;;;14.49;47.98
62864;BME280;48954;59.950;11.014;2023-06-04T06:24:02;100492.73;;;14.58;47.44
62864;BME280;48954;59.950;11.014;2023-06-04T06:26:29;100494.47;;;14.61;46.97
62864;BME280;48954;59.950;11.014;2023-06-04T06:28:56;100498.55;;;14.64;46.92
62864;BME280;48954;59.950;11.014;2023-06-04T06:31:22;100501.55;;;14.73;46.73
62864;BME280;48954;59.950;11.014;2023-06-04T06:33:50;100501.05;;;14.81;46.65
62864;BME280;48954;59.950;11.014;2023-06-04T06:36:17;100498.21;;;14.91;46.59
62864;BME280;48954;59.950;11.014;2023-06-04T06:38:44;100498.11;;;14.99;46.09
62864;BME280;48954;59.950;11.014;2023-06-04T06:41:11;100494.95;;;14.99;45.78
62864;BME280;48954;59.950;11.014;2023-06-04T06:43:38;100494.14;;;15.02;45.68
62864;BME280;48954;59.950;11.014;2023-06-04T06:46:05;100494.48;;;15.09;45.69
62864;BME280;48954;59.950;11.014;2023-06-04T06:48:31;100495.85;;;15.21;45.57
62864;BME280;48954;59.950;11.014;2023-06-04T06:50:58;100501.23;;;15.30;45.37
62864;BME280;48954;59.950;11.014;2023-06-04T06:53:24;100504.59;;;15.34;45.19
62864;BME280;48954;59.950;11.014;2023-06-04T06:55:51;100506.81;;;15.34;44.76
62864;BME280;48954;59.950;11.014;2023-06-04T06:58:17;100506.30;;;15.37;44.79
62864;BME280;48954;59.950;11.014;2023-06-04T07:00:44;100507.35;;;15.49;44.91
62864;BME280;48954;59.950;11.014;2023-06-04T07:03:10;100509.63;;;15.62;44.59
62864;BME280;48954;59.950;11.014;2023-06-04T07:05:37;100506.95;;;15.74;44.43
62864;BME280;48954;59.950;11.014;2023-06-04T07:08:03;100509.52;;;15.77;43.92
62864;BME280;48954;59.950;11.014;2023-06-04T07:10:30;100510.64;;;15.77;44.28
62864;BME280;48954;59.950;11.014;2023-06-04T07:12:56;100509.02;;;15.81;43.47
62864;BME280;48954;59.950;11.014;2023-06-04T07:15:23;100510.54;;;15.76;43.46
62864;BME280;48954;59.950;11.014;2023-06-04T07:17:51;100511.72;;;15.81;43.33
62864;BME280;48954;59.950;11.014;2023-06-04T07:20:17;100508.55;;;15.88;43.42
62864;BME280;48954;59.950;11.014;2023-06-04T07:22:48;100509.30;;;15.96;43.43
62864;BME280;48954;59.950;11.014;2023-06-04T07:25:14;100509.30;;;16.03;43.22
62864;BME280;48954;59.950;11.014;2023-06-04T07:27:48;100504.79;;;16.11;43.32
62864;BME280;48954;59.950;11.014;2023-06-04T07:30:14;100505.16;;;16.20;42.73
62864;BME280;48954;59.950;11.014;2023-06-04T07:32:41;100504.77;;;16.23;42.45
62864;BME280;48954;59.950;11.014;2023-06-04T07:35:08;100501.95;;;16.27;42.03
62864;BME280;48954;59.950;11.014;2023-06-04T07:37:44;100498.85;;;16.26;41.57
62864;BME280;48954;59.950;11.014;2023-06-04T07:40:11;100500.81;;;16.24;41.47
62864;BME280;48954;59.950;11.014;2023-06-04T07:42:38;100495.97;;;16.22;41.25
62864;BME280;48954;59.950;11.014;2023-06-04T07:45:05;100493.77;;;16.25;40.99
62864;BME280;48954;59.950;11.014;2023-06-04T07:47:31;100491.09;;;16.26;40.80
62864;BME280;48954;59.950;11.014;2023-06-04T07:49:59;100487.83;;;16.26;40.87
62864;BME280;48954;59.950;11.014;2023-06-04T07:52:26;100484.06;;;16.36;40.76
62864;BME280;48954;59.950;11.014;2023-06-04T07:54:52;100489.16;;;16.45;40.16
62864;BME280;48954;59.950;11.014;2023-06-04T07:57:24;100489.27;;;16.49;40.30
62864;BME280;48954;59.950;11.014;2023-06-04T07:59:51;100486.72;;;16.55;39.57
62864;BME280;48954;59.950;11.014;2023-06-04T08:02:18;100493.23;;;16.64;40.15
62864;BME280;48954;59.950;11.014;2023-06-04T08:04:45;100493.38;;;16.78;39.74
62864;BME280;48954;59.950;11.014;2023-06-04T08:07:11;100489.69;;;16.82;39.51
62864;BME280;48954;59.950;11.014;2023-06-04T08:09:38;100492.46;;;16.91;39.43
62864;BME280;48954;59.950;11.014;2023-06-04T08:12:05;100494.60;;;16.99;38.85
62864;BME280;48954;59.950;11.014;2023-06-04T08:14:31;100493.01;;;16.98;38.37
62864;BME280;48954;59.950;11.014;2023-06-04T08:16:58;100494.05;;;17.01;38.37
62864;BME280;48954;59.950;11.014;2023-06-04T08:19:25;100490.52;;;17.05;37.61
62864;BME280;48954;59.950;11.014;2023-06-04T08:21:53;100493.90;;;17.01;37.89
62864;BME280;48954;59.950;11.014;2023-06-04T08:24:20;100485.63;;;17.09;37.78
62864;BME280;48954;59.950;11.014;2023-06-04T08:26:47;100483.70;;;17.19;37.53
62864;BME280;48954;59.950;11.014;2023-06-04T08:29:13;100486.80;;;17.28;37.44
62864;BME280;48954;59.950;11.014;2023-06-04T08:31:42;100487.73;;;17.38;36.97
62864;BME280;48954;59.950;11.014;2023-06-04T08:34:10;100489.55;;;17.49;36.34
62864;BME280;48954;59.950;11.014;2023-06-04T08:36:37;100485.98;;;17.62;36.18
62864;BME280;48954;59.950;11.014;2023-06-04T08:39:09;100486.02;;;17.68;36.38
62864;BME280;48954;59.950;11.014;2023-06-04T08:41:43;100486.01;;;17.76;36.05
62864;BME280;48954;59.950;11.014;2023-06-04T08:44:10;100484.89;;;17.80;36.02
62864;BME280;48954;59.950;11.014;2023-06-04T08:46:38;100475.48;;;17.92;36.10
62864;BME280;48954;59.950;11.014;2023-06-04T08:49:05;100478.85;;;17.98;35.62
62864;BME280;48954;59.950;11.014;2023-06-04T08:51:36;100478.71;;;18.00;35.50
62864;BME280;48954;59.950;11.014;2023-06-04T08:54:06;100476.89;;;18.03;35.50
62864;BME280;48954;59.950;11.014;2023-06-04T08:56:34;100475.08;;;18.12;35.38
62864;BME280;48954;59.950;11.014;2023-06-04T08:59:04;100474.79;;;18.20;34.99
62864;BME280;48954;59.950;11.014;2023-06-04T09:01:31;100469.48;;;18.29;34.57
62864;BME280;48954;59.950;11.014;2023-06-04T09:04:03;100466.02;;;18.40;34.43
62864;BME280;48954;59.950;11.014;2023-06-04T09:06:33;100465.56;;;18.56;34.33
62864;BME280;48954;59.950;11.014;2023-06-04T09:09:03;100469.26;;;18.68;34.34
62864;BME280;48954;59.950;11.014;2023-06-04T09:11:36;100468.63;;;18.72;33.53
62864;BME280;48954;59.950;11.014;2023-06-04T09:14:07;100469.98;;;18.67;33.57
62864;BME280;48954;59.950;11.014;2023-06-04T09:16:49;100467.04;;;18.77;33.64
62864;BME280;48954;59.950;11.014;2023-06-04T09:19:17;100469.58;;;18.87;33.36
62864;BME280;48954;59.950;11.014;2023-06-04T09:21:48;100461.45;;;18.86;32.76
62864;BME280;48954;59.950;11.014;2023-06-04T09:24:18;100457.00;;;18.89;32.83
62864;BME280;48954;59.950;11.014;2023-06-04T09:26:45;100456.54;;;18.94;32.62
62864;BME280;48954;59.950;11.014;2023-06-04T09:29:16;100459.22;;;19.03;32.60
62864;BME280;48954;59.950;11.014;2023-06-04T09:31:57;100460.98;;;19.08;32.35
62864;BME280;48954;59.950;11.014;2023-06-04T09:34:28;100456.74;;;19.10;32.24
62864;BME280;48954;59.950;11.014;2023-06-04T09:37:14;100454.98;;;19.14;31.93
62864;BME280;48954;59.950;11.014;2023-06-04T09:39:57;100449.16;;;19.21;32.04
62864;BME280;48954;59.950;11.014;2023-06-04T09:42:24;100445.80;;;19.32;31.90
62864;BME280;48954;59.950;11.014;2023-06-04T09:44:50;100447.45;;;19.41;31.61
62864;BME280;48954;59.950;11.014;2023-06-04T09:47:17;100445.70;;;19.41;31.56
62864;BME280;48954;59.950;11.014;2023-06-04T09:49:48;100445.15;;;19.34;31.39
62864;BME280;48954;59.950;11.014;2023-06-04T09:52:19;100440.52;;;19.34;31.57
62864;BME280;48954;59.950;11.014;2023-06-04T09:54:46;100441.30;;;19.39;31.74
62864;BME280;48954;59.950;11.014;2023-06-04T09:57:19;100442.11;;;19.47;31.44
62864;BME280;48954;59.950;11.014;2023-06-04T09:59:48;100434.85;;;19.52;31.22
62864;BME280;48954;59.950;11.014;2023-06-04T10:02:20;100433.98;;;19.51;31.28
62864;BME280;48954;59.950;11.014;2023-06-04T10:04:54;100429.58;;;19.55;31.11
62864;BME280;48954;59.950;11.014;2023-06-04T10:07:26;100428.87;;;19.59;31.26
62864;BME280;48954;59.950;11.014;2023-06-04T10:09:59;100425.95;;;19.62;30.86
62864;BME280;48954;59.950;11.014;2023-06-04T10:12:31;100422.67;;;19.70;30.78
62864;BME280;48954;59.950;11.014;2023-06-04T10:15:10;100425.26;;;19.81;30.98
62864;BME280;48954;59.950;11.014;2023-06-04T10:17:47;100424.33;;;19.91;30.66
62864;BME280;48954;59.950;11.014;2023-06-04T10:23:23;100423.20;;;20.10;30.30
62864;BME280;48954;59.950;11.014;2023-06-04T10:25:51;100422.05;;;20.13;30.54
62864;BME280;48954;59.950;11.014;2023-06-04T10:28:22;100416.81;;;20.09;30.27
62864;BME280;48954;59.950;11.014;2023-06-04T10:30:49;100417.95;;;20.07;30.28
62864;BME280;48954;59.950;11.014;2023-06-04T10:33:20;100412.02;;;20.09;30.56
62864;BME280;48954;59.950;11.014;2023-06-04T10:35:52;100413.42;;;20.14;30.38
62864;BME280;48954;59.950;11.014;2023-06-04T10:38:19;100412.27;;;20.10;30.35
62864;BME280;48954;59.950;11.014;2023-06-04T10:40:46;100404.14;;;20.08;30.33
62864;BME280;48954;59.950;11.014;2023-06-04T10:43:14;100404.92;;;20.11;30.88
62864;BME280;48954;59.950;11.014;2023-06-04T10:45:44;100396.73;;;20.17;30.53
62864;BME280;48954;59.950;11.014;2023-06-04T10:48:12;100399.06;;;20.26;29.86
62864;BME280;48954;59.950;11.014;2023-06-04T10:50:51;100392.88;;;20.23;30.29
62864;BME280;48954;59.950;11.014;2023-06-04T10:53:20;100393.92;;;20.31;30.22
62864;BME280;48954;59.950;11.014;2023-06-04T10:55:49;100396.39;;;20.32;29.83
62864;BME280;48954;59.950;11.014;2023-06-04T10:58:20;100394.80;;;20.33;29.86
62864;BME280;48954;59.950;11.014;2023-06-04T11:00:49;100399.65;;;20.39;29.88
62864;BME280;48954;59.950;11.014;2023-06-04T11:03:16;100401.14;;;20.42;29.98
62864;BME280;48954;59.950;11.014;2023-06-04T11:05:44;100405.95;;;20.39;29.88
62864;BME280;48954;59.950;11.014;2023-06-04T11:08:13;100399.91;;;20.31;29.51
62864;BME280;48954;59.950;11.014;2023-06-04T11:10:47;100401.13;;;20.27;29.56
62864;BME280;48954;59.950;11.014;2023-06-04T11:13:15;100399.66;;;20.31;29.80
62864;BME280;48954;59.950;11.014;2023-06-04T11:15:45;100402.29;;;20.33;30.26
62864;BME280;48954;59.950;11.014;2023-06-04T11:18:18;100395.58;;;20.38;30.19
62864;BME280;48954;59.950;11.014;2023-06-04T11:20:48;100398.90;;;20.54;29.96
62864;BME280;48954;59.950;11.014;2023-06-04T11:23:18;100394.63;;;20.67;30.20
62864;BME280;48954;59.950;11.014;2023-06-04T11:25:44;100392.52;;;20.80;30.48
62864;BME280;48954;59.950;11.014;2023-06-04T11:28:18;100393.04;;;20.85;30.01
62864;BME280;48954;59.950;11.014;2023-06-04T11:31:05;100398.37;;;20.87;29.77
62864;BME280;48954;59.950;11.014;2023-06-04T11:33:46;100401.96;;;20.88;29.78
62864;BME280;48954;59.950;11.014;2023-06-04T11:36:26;100405.10;;;20.93;29.58
62864;BME280;48954;59.950;11.014;2023-06-04T11:38:58;100405.23;;;20.97;29.33
62864;BME280;48954;59.950;11.014;2023-06-04T11:41:30;100402.77;;;21.03;29.29
62864;BME280;48954;59.950;11.014;2023-06-04T11:44:07;100400.73;;;21.06;29.27
62864;BME280;48954;59.950;11.014;2023-06-04T11:46:42;100399.48;;;21.04;29.04
62864;BME280;48954;59.950;11.014;2023-06-04T11:49:18;100392.02;;;21.06;29.46
62864;BME280;48954;59.950;11.014;2023-06-04T11:51:49;100390.23;;;21.26;29.79
62864;BME280;48954;59.950;11.014;2023-06-04T11:54:17;100390.48;;;21.33;29.90
62864;BME280;48954;59.950;11.014;2023-06-04T11:56:45;100391.69;;;21.31;29.36
62864;BME280;48954;59.950;11.014;2023-06-04T11:59:13;100384.91;;;21.26;29.23
62864;BME280;48954;59.950;11.014;2023-06-04T12:01:41;100383.30;;;21.25;29.53
62864;BME280;48954;59.950;11.014;2023-06-04T12:04:20;100389.31;;;21.30;29.54
62864;BME280;48954;59.950;11.014;2023-06-04T12:07:03;100385.77;;;21.31;29.35
62864;BME280;48954;59.950;11.014;2023-06-04T12:09:32;100382.57;;;21.33;29.02
62864;BME280;48954;59.950;11.014;2023-06-04T12:12:06;100381.36;;;21.34;29.10
62864;BME280;48954;59.950;11.014;2023-06-04T12:14:33;100380.15;;;21.35;28.95
62864;BME280;48954;59.950;11.014;2023-06-04T12:17:02;100380.08;;;21.34;29.36
62864;BME280;48954;59.950;11.014;2023-06-04T12:19:49;100380.67;;;21.39;29.18
62864;BME280;48954;59.950;11.014;2023-06-04T12:22:21;100375.52;;;21.48;29.20
62864;BME280;48954;59.950;11.014;2023-06-04T12:24:51;100380.13;;;21.57;29.02
62864;BME280;48954;59.950;11.014;2023-06-04T12:27:19;100376.20;;;21.58;29.41
62864;BME280;48954;59.950;11.014;2023-06-04T12:30:05;100377.70;;;21.59;28.98
62864;BME280;48954;59.950;11.014;2023-06-04T12:32:36;100376.66;;;21.59;28.68
62864;BME280;48954;59.950;11.014;2023-06-04T12:35:03;100373.50;;;21.56;28.71
62864;BME280;48954;59.950;11.014;2023-06-04T12:37:30;100374.73;;;21.60;28.70
62864;BME280;48954;59.950;11.014;2023-06-04T12:39:56;100372.01;;;21.54;28.12
62864;BME280;48954;59.950;11.014;2023-06-04T12:42:24;100368.89;;;21.34;28.10
62864;BME280;48954;59.950;11.014;2023-06-04T12:44:52;100375.48;;;21.25;28.15
62864;BME280;48954;59.950;11.014;2023-06-04T12:47:21;100372.98;;;21.27;28.54
62864;BME280;48954;59.950;11.014;2023-06-04T12:49:48;100377.02;;;21.36;28.72
62864;BME280;48954;59.950;11.014;2023-06-04T12:52:16;100372.74;;;21.47;28.65
62864;BME280;48954;59.950;11.014;2023-06-04T12:54:45;100369.10;;;21.50;28.84
62864;BME280;48954;59.950;11.014;2023-06-04T12:57:13;100369.34;;;21.51;28.93